CheckWX is a tool to help pilots better visualize weather data.  It is not intended as a substitute for an official pre-flight weather briefing.

12:42:14 UTC

YSRI TAF
RAAF Base Richmond Airport
Richmond, Australia
TAF YSRI 221113Z 2212/2312 VRB03KT 9999 SCT020 FM221400 VRB03KT 0500 FG BKN003 BECMG 2222/2223 05005KT 9999 FEW010 FM230600 02008KT 9999 -SHRA FEW040 BKN080

Mar-22@
12:00 UTC

Mar-22 @ 12:00 UTC

Mar-22@
14:00 UTC

Mar-22 @ 14:00 UTC

TAF YSRI 221113Z 2212/2312 VRB03KT 9999 SCT020
Wind
  • Variable at 3 KTS
Cloud Levels
  • Scattered at 2,000' AGL

Mar-22@
14:00 UTC

Mar-22 @ 14:00 UTC

Mar-22@
22:00 UTC

Mar-22 @ 22:00 UTC

FM221400 VRB03KT 0500 FG BKN003

From

From Standard forecast or significant change

Wind
  • Variable at 3 KTS
Conditions
Fog
Cloud Levels
  • Broken at 300' AGL

Mar-22@
22:00 UTC

Mar-22 @ 22:00 UTC

Mar-23@
06:00 UTC

Mar-23 @ 06:00 UTC

BECMG 2222/2223 05005KT 9999 FEW010

Becoming

Becoming Conditions expected by Fri, Mar 22, 2019 @ 23:00 UTC

Wind
  • 050° at 5 KTS
Conditions
Fog
Cloud Levels
  • Few at 1,000' AGL

Mar-23@
06:00 UTC

Mar-23 @ 06:00 UTC

Mar-23@
12:00 UTC

Mar-23 @ 12:00 UTC

FM230600 02008KT 9999 -SHRA FEW040 BKN080

From

From Standard forecast or significant change

Wind
  • 020° at 8 KTS
Conditions
Light Rain
Cloud Levels
  • Few at 4,000' AGL
  • Broken at 8,000' AGL